Time;durP1;ratioP1;P1;durP2;ratioP2;P2;SDS_P1;SDS_P2;PMS_P1;PMS_P2;Temp;Humidity;BMP_temperature;BMP_pressure;BME280_temperature;BME280_humidity;BME280_pressure;Samples;Min_cycle;Max_cycle;Signal;HPM_P1;HPM_P2
2021/05/19 00:01:40;;;;;;;1.98;0.80;;;9.00;99.90;;;;;;5054044;28;20086;-72
2021/05/19 00:04:08;;;;;;;6.85;1.13;;;9.00;99.90;;;;;;5053530;28;20124;-73
2021/05/19 00:06:34;;;;;;;1.02;0.70;;;9.10;99.90;;;;;;5034669;28;20045;-72
2021/05/19 00:09:00;;;;;;;1.65;1.08;;;9.10;99.90;;;;;;5043414;28;20100;-72
2021/05/19 00:11:26;;;;;;;2.28;0.70;;;9.10;99.90;;;;;;5054113;28;20523;-72
2021/05/19 00:13:52;;;;;;;0.73;0.68;;;8.90;99.90;;;;;;5053615;28;20103;-72
2021/05/19 00:16:19;;;;;;;0.88;0.82;;;8.90;99.90;;;;;;5053733;28;20716;-71
2021/05/19 00:18:44;;;;;;;4.63;1.00;;;8.80;99.90;;;;;;5052770;28;20075;-72
2021/05/19 00:21:10;;;;;;;3.25;0.98;;;8.90;99.90;;;;;;5053563;28;20638;-71
2021/05/19 00:23:36;;;;;;;1.73;1.08;;;8.90;99.90;;;;;;5053152;28;20104;-72
2021/05/19 00:26:03;;;;;;;0.80;0.80;;;8.90;99.90;;;;;;5035770;28;20438;-72
2021/05/19 00:28:30;;;;;;;1.60;0.80;;;8.90;99.90;;;;;;5033678;28;20017;-73
2021/05/19 00:30:58;;;;;;;4.22;1.05;;;8.80;99.90;;;;;;5033364;28;20108;-72
2021/05/19 00:33:24;;;;;;;1.38;1.10;;;9.00;99.90;;;;;;5032983;28;20104;-72
2021/05/19 00:35:50;;;;;;;4.82;1.25;;;9.00;99.90;;;;;;5033505;28;20026;-73
2021/05/19 00:38:17;;;;;;;2.47;0.90;;;9.00;99.90;;;;;;5033703;28;20029;-72
2021/05/19 00:40:43;;;;;;;4.65;1.65;;;9.00;99.90;;;;;;5035353;28;20029;-73
2021/05/19 00:43:12;;;;;;;1.80;1.10;;;8.90;99.90;;;;;;5036931;28;20395;-72
2021/05/19 00:45:38;;;;;;;1.10;1.00;;;8.90;99.90;;;;;;5034553;28;20025;-72
2021/05/19 00:48:05;;;;;;;2.40;1.35;;;8.90;99.90;;;;;;5015860;28;20391;-71
2021/05/19 00:50:31;;;;;;;1.85;1.23;;;9.00;99.90;;;;;;5033023;28;20017;-71
2021/05/19 00:52:57;;;;;;;1.83;1.20;;;8.90;99.90;;;;;;5032654;28;20048;-72
2021/05/19 00:55:23;;;;;;;2.50;1.08;;;8.90;99.90;;;;;;5033125;28;20036;-72
2021/05/19 00:57:51;;;;;;;1.90;0.98;;;9.10;99.90;;;;;;5033108;28;20499;-72
2021/05/19 01:00:20;;;;;;;1.75;1.10;;;9.10;99.90;;;;;;5032841;28;20026;-73
2021/05/19 01:02:45;;;;;;;1.58;1.20;;;9.00;99.90;;;;;;5032414;28;20032;-72
2021/05/19 01:05:21;;;;;;;2.45;1.20;;;9.10;99.90;;;;;;5032582;28;20033;-72
2021/05/19 01:10:31;;;;;;;1.60;1.00;;;9.00;99.90;;;;;;5033312;28;20036;-72
2021/05/19 01:12:57;;;;;;;3.00;1.10;;;8.90;99.90;;;;;;5032679;28;20100;-72
2021/05/19 01:15:23;;;;;;;2.28;1.33;;;8.90;99.90;;;;;;5032959;28;20029;-71
2021/05/19 01:17:50;;;;;;;1.63;0.93;;;8.90;99.90;;;;;;5033108;28;20065;-72
2021/05/19 01:20:16;;;;;;;1.95;0.88;;;8.90;99.90;;;;;;5033159;28;20030;-72
2021/05/19 01:22:42;;;;;;;1.40;0.95;;;8.90;99.90;;;;;;5032107;28;20100;-72
2021/05/19 01:25:10;;;;;;;2.45;0.93;;;9.00;99.90;;;;;;5032319;28;20466;-73
2021/05/19 01:27:37;;;;;;;1.60;0.88;;;9.00;99.90;;;;;;5014643;28;20034;-72
2021/05/19 01:30:05;;;;;;;2.80;0.85;;;8.90;99.90;;;;;;5031793;28;20029;-72
2021/05/19 01:32:32;;;;;;;1.02;0.88;;;8.90;99.90;;;;;;5032083;28;20036;-73
2021/05/19 01:34:57;;;;;;;3.10;0.90;;;9.00;99.90;;;;;;5031664;28;20021;-71
2021/05/19 01:37:23;;;;;;;1.30;1.05;;;9.00;99.90;;;;;;5032422;28;20105;-73
2021/05/19 01:39:49;;;;;;;1.60;0.98;;;9.00;99.90;;;;;;5032418;28;20029;-72
2021/05/19 01:42:15;;;;;;;1.30;1.20;;;9.00;99.90;;;;;;5032308;28;20026;-72
2021/05/19 01:44:41;;;;;;;1.75;1.05;;;9.10;99.90;;;;;;5031238;28;20060;-71
2021/05/19 01:47:08;;;;;;;1.00;1.00;;;9.20;99.90;;;;;;5031880;28;20049;-71
2021/05/19 01:49:42;;;;;;;1.48;1.08;;;9.20;99.90;;;;;;5031974;28;20026;-71
2021/05/19 01:52:12;;;;;;;4.45;0.90;;;9.10;99.90;;;;;;5032309;28;20104;-72
2021/05/19 01:54:40;;;;;;;2.65;0.93;;;9.00;99.90;;;;;;5032542;28;20102;-72
2021/05/19 01:57:08;;;;;;;5.35;1.13;;;9.00;99.90;;;;;;5039840;28;20102;-72
2021/05/19 01:59:34;;;;;;;2.75;0.90;;;9.00;99.90;;;;;;5031969;28;20079;-73
2021/05/19 02:01:59;;;;;;;0.90;0.88;;;9.00;99.90;;;;;;5031778;28;20547;-74
2021/05/19 02:04:27;;;;;;;1.20;0.93;;;8.90;99.90;;;;;;5031303;28;20125;-73
2021/05/19 02:06:58;;;;;;;1.00;0.85;;;8.90;99.90;;;;;;5031905;28;20017;-72
2021/05/19 02:09:25;;;;;;;1.45;1.30;;;9.00;99.90;;;;;;5031709;28;20093;-73
2021/05/19 02:11:52;;;;;;;1.45;0.95;;;8.90;99.90;;;;;;5031670;28;20052;-72
2021/05/19 02:14:19;;;;;;;1.35;1.20;;;8.80;99.90;;;;;;5031064;28;20387;-72
2021/05/19 02:16:45;;;;;;;1.05;1.00;;;8.80;99.90;;;;;;5031412;28;20087;-72
2021/05/19 02:19:13;;;;;;;4.32;1.33;;;8.80;99.90;;;;;;5013917;28;20496;-71
2021/05/19 02:21:44;;;;;;;5.72;1.67;;;8.90;99.90;;;;;;5031645;28;20026;-72
2021/05/19 02:24:13;;;;;;;1.95;1.20;;;8.90;99.90;;;;;;5030542;28;20029;-72
2021/05/19 02:26:40;;;;;;;2.97;1.40;;;8.90;99.90;;;;;;5031438;28;20029;-72
2021/05/19 02:29:06;;;;;;;2.63;1.52;;;8.90;99.90;;;;;;5031551;28;20491;-71
2021/05/19 02:31:32;;;;;;;1.35;1.30;;;9.00;99.90;;;;;;5031104;28;20427;-72
2021/05/19 02:33:58;;;;;;;2.05;1.08;;;9.00;99.90;;;;;;5030640;28;20033;-71
2021/05/19 02:36:24;;;;;;;2.33;1.48;;;9.00;99.90;;;;;;5031496;28;20129;-73
2021/05/19 02:38:51;;;;;;;1.10;1.10;;;9.00;99.90;;;;;;5031198;28;20021;-71
2021/05/19 02:41:16;;;;;;;1.63;1.30;;;9.00;99.90;;;;;;5031239;28;20028;-71
2021/05/19 02:43:42;;;;;;;5.07;1.77;;;9.00;99.90;;;;;;5450496;23;20037;-71
2021/05/19 02:46:08;;;;;;;1.48;1.35;;;9.00;99.90;;;;;;5043076;28;20131;-71
2021/05/19 02:48:34;;;;;;;1.52;1.27;;;9.00;99.90;;;;;;5036895;28;20028;-71
2021/05/19 02:51:00;;;;;;;1.77;1.20;;;9.00;99.90;;;;;;5031929;28;20021;-70
2021/05/19 02:53:25;;;;;;;2.75;1.20;;;9.00;99.90;;;;;;5046590;28;20079;-70
2021/05/19 02:55:51;;;;;;;1.55;1.33;;;9.00;99.90;;;;;;5047248;28;20033;-71
2021/05/19 02:58:17;;;;;;;1.25;1.15;;;9.00;99.90;;;;;;5042756;28;20034;-70
2021/05/19 03:00:42;;;;;;;2.10;1.40;;;9.10;99.90;;;;;;5028933;28;20085;-70
2021/05/19 03:03:08;;;;;;;1.23;1.10;;;9.00;99.90;;;;;;5016168;28;20037;-71
2021/05/19 03:05:34;;;;;;;3.33;1.13;;;8.90;99.90;;;;;;5019729;28;20468;-71
2021/05/19 03:07:59;;;;;;;1.33;1.23;;;8.90;99.90;;;;;;5022834;28;20030;-71
2021/05/19 03:10:25;;;;;;;3.60;1.35;;;8.90;99.90;;;;;;5023456;28;20461;-70
2021/05/19 03:12:51;;;;;;;1.30;1.20;;;8.90;99.90;;;;;;5019956;28;20025;-70
2021/05/19 03:15:19;;;;;;;6.30;1.85;;;8.90;99.90;;;;;;5029628;28;20483;-70
2021/05/19 03:17:46;;;;;;;1.60;1.20;;;8.90;99.90;;;;;;5030882;28;20018;-70
2021/05/19 03:20:13;;;;;;;1.73;1.30;;;8.90;99.90;;;;;;5030129;28;20033;-70
2021/05/19 03:22:39;;;;;;;1.63;1.20;;;8.90;99.90;;;;;;5030165;28;20028;-70
2021/05/19 03:25:06;;;;;;;3.78;1.40;;;8.90;99.90;;;;;;5030437;28;20029;-70
2021/05/19 03:27:32;;;;;;;3.50;1.60;;;8.80;99.90;;;;;;5030667;28;20025;-70
2021/05/19 03:29:57;;;;;;;2.33;1.10;;;8.90;99.90;;;;;;5029788;28;20108;-70
2021/05/19 03:32:23;;;;;;;2.85;1.52;;;8.90;99.90;;;;;;5030717;28;20034;-69
2021/05/19 03:34:49;;;;;;;2.60;1.50;;;8.90;99.90;;;;;;5028437;28;20088;-70
2021/05/19 03:37:15;;;;;;;4.28;1.50;;;9.00;99.90;;;;;;5029214;28;20029;-70
2021/05/19 03:39:41;;;;;;;1.77;1.33;;;9.00;99.90;;;;;;5030647;28;20021;-70
2021/05/19 03:42:07;;;;;;;3.28;1.52;;;9.00;99.90;;;;;;5029301;28;20099;-69
2021/05/19 03:44:33;;;;;;;3.38;1.38;;;9.00;99.90;;;;;;5029225;28;20029;-70
2021/05/19 03:46:59;;;;;;;2.38;1.30;;;9.00;99.90;;;;;;5029063;28;20026;-71
2021/05/19 03:49:28;;;;;;;2.58;1.48;;;9.10;99.90;;;;;;5030816;28;20022;-70
2021/05/19 03:51:54;;;;;;;3.25;1.58;;;9.00;99.90;;;;;;5030339;28;20025;-70
2021/05/19 03:54:19;;;;;;;1.95;1.50;;;9.00;99.90;;;;;;5031017;28;20498;-71
2021/05/19 03:56:45;;;;;;;2.22;1.63;;;9.00;99.90;;;;;;5034188;28;20037;-71
2021/05/19 03:59:11;;;;;;;1.90;1.38;;;9.00;99.90;;;;;;5034068;28;20096;-70
2021/05/19 04:01:37;;;;;;;4.22;1.40;;;8.90;99.90;;;;;;5034234;28;20121;-70
2021/05/19 04:04:03;;;;;;;3.28;1.40;;;8.90;99.90;;;;;;5033350;28;20061;-70
2021/05/19 04:06:29;;;;;;;4.20;1.50;;;8.80;99.90;;;;;;5033801;28;20034;-70
2021/05/19 04:08:57;;;;;;;1.70;1.60;;;8.90;99.90;;;;;;5045395;28;20085;-71
2021/05/19 04:11:23;;;;;;;2.60;1.45;;;8.90;99.90;;;;;;5038813;28;20018;-71
2021/05/19 04:13:49;;;;;;;5.13;1.85;;;8.90;99.90;;;;;;5033549;28;20025;-70
2021/05/19 04:16:15;;;;;;;2.15;1.60;;;8.90;99.90;;;;;;5033502;28;20463;-70
2021/05/19 04:18:41;;;;;;;1.33;1.20;;;9.00;99.90;;;;;;5032270;28;20032;-71
2021/05/19 04:21:07;;;;;;;3.55;1.73;;;9.00;99.90;;;;;;5034087;28;20029;-70
2021/05/19 04:23:34;;;;;;;2.70;1.77;;;9.00;99.90;;;;;;5033083;28;20070;-71
2021/05/19 04:26:00;;;;;;;2.88;1.35;;;9.10;99.90;;;;;;5023027;28;20519;-71
2021/05/19 04:28:26;;;;;;;2.40;1.30;;;9.20;99.90;;;;;;5029751;28;20033;-70
2021/05/19 04:30:52;;;;;;;2.50;1.38;;;9.20;99.90;;;;;;5032766;28;20151;-71
2021/05/19 04:33:19;;;;;;;1.60;1.50;;;9.20;99.90;;;;;;5031202;28;20030;-71
2021/05/19 04:35:45;;;;;;;2.88;1.23;;;9.20;99.90;;;;;;5032342;28;20336;-71
2021/05/19 04:38:11;;;;;;;3.55;1.55;;;9.20;99.90;;;;;;5030368;28;20368;-73
2021/05/19 04:40:37;;;;;;;2.20;1.35;;;9.20;99.90;;;;;;5019630;28;20040;-72
2021/05/19 04:43:10;;;;;;;2.58;1.30;;;9.20;99.90;;;;;;5035714;28;20029;-71
2021/05/19 04:45:37;;;;;;;1.50;1.38;;;9.30;99.90;;;;;;5037714;28;20040;-71
2021/05/19 04:48:03;;;;;;;2.92;1.50;;;9.30;99.90;;;;;;5034369;28;20017;-72
2021/05/19 04:50:29;;;;;;;3.67;1.67;;;9.20;99.90;;;;;;5035431;28;20022;-71
2021/05/19 04:52:55;;;;;;;1.80;1.40;;;9.30;99.90;;;;;;5033768;28;20025;-71
2021/05/19 04:55:21;;;;;;;2.45;1.80;;;9.30;99.90;;;;;;5033172;28;20141;-71
2021/05/19 04:57:46;;;;;;;3.17;1.48;;;9.20;99.90;;;;;;5032270;28;20032;-71
2021/05/19 05:00:13;;;;;;;1.70;1.60;;;9.30;99.90;;;;;;5032168;28;20025;-72
2021/05/19 05:02:39;;;;;;;1.95;1.80;;;9.20;99.90;;;;;;5030668;28;20025;-71
2021/05/19 05:05:07;;;;;;;3.38;1.70;;;9.20;99.90;;;;;;5030804;28;20033;-72
2021/05/19 05:07:32;;;;;;;3.53;1.80;;;9.20;99.90;;;;;;5031203;28;20702;-74
2021/05/19 05:10:00;;;;;;;1.95;1.70;;;9.30;99.90;;;;;;5029789;28;20060;-76
2021/05/19 05:12:26;;;;;;;3.97;2.15;;;9.50;99.90;;;;;;5031665;28;20033;-75
2021/05/19 05:14:51;;;;;;;4.10;1.85;;;9.70;99.90;;;;;;5031596;28;20021;-75
2021/05/19 05:17:17;;;;;;;2.28;1.58;;;10.10;99.90;;;;;;5031560;28;20369;-75
2021/05/19 05:19:43;;;;;;;7.50;1.73;;;10.20;99.90;;;;;;5032049;28;20104;-71
2021/05/19 05:22:09;;;;;;;5.55;1.08;;;10.20;99.90;;;;;;5031250;28;20033;-74
2021/05/19 05:24:36;;;;;;;1.40;1.30;;;10.10;99.90;;;;;;5032831;28;20453;-71
2021/05/19 05:27:01;;;;;;;3.70;1.60;;;10.00;99.90;;;;;;5017048;28;20101;-72
2021/05/19 05:29:27;;;;;;;7.63;2.15;;;9.90;99.90;;;;;;5013851;28;20053;-73
2021/05/19 05:31:53;;;;;;;6.43;1.90;;;9.90;99.90;;;;;;5011914;28;20074;-72
2021/05/19 05:34:18;;;;;;;3.35;1.63;;;9.90;99.90;;;;;;5011034;28;20027;-73
2021/05/19 05:36:44;;;;;;;2.95;1.83;;;9.80;99.90;;;;;;5010508;28;20356;-72
2021/05/19 05:39:09;;;;;;;1.40;1.30;;;9.80;99.90;;;;;;5015917;28;20033;-72
2021/05/19 05:41:35;;;;;;;2.30;1.52;;;9.70;99.90;;;;;;5031356;28;20103;-72
2021/05/19 05:44:01;;;;;;;6.25;1.88;;;9.70;99.90;;;;;;5030343;28;20199;-72
2021/05/19 05:46:27;;;;;;;2.25;1.70;;;9.70;99.90;;;;;;5029655;28;20179;-71
2021/05/19 05:48:52;;;;;;;1.92;1.70;;;9.70;99.90;;;;;;5030889;28;20026;-72
2021/05/19 05:51:18;;;;;;;3.88;2.08;;;9.80;99.90;;;;;;5030927;28;20040;-72
2021/05/19 05:53:44;;;;;;;3.17;1.77;;;9.80;99.90;;;;;;5027252;28;20025;-70
2021/05/19 05:56:09;;;;;;;2.90;1.63;;;9.90;99.90;;;;;;5009925;28;20034;-71
2021/05/19 05:58:35;;;;;;;2.38;1.70;;;9.80;99.90;;;;;;5021907;28;20084;-73
2021/05/19 06:01:01;;;;;;;3.47;1.83;;;9.90;99.90;;;;;;5016601;28;20025;-72
2021/05/19 06:03:26;;;;;;;3.78;1.63;;;10.10;99.90;;;;;;5021413;28;20455;-76
2021/05/19 06:05:52;;;;;;;1.55;1.45;;;10.10;99.90;;;;;;5010731;28;20459;-72
2021/05/19 06:08:18;;;;;;;5.72;1.80;;;10.20;99.90;;;;;;5009497;28;20026;-72
2021/05/19 06:10:43;;;;;;;4.75;1.98;;;10.50;99.90;;;;;;5026187;28;20029;-73
2021/05/19 06:13:09;;;;;;;5.30;1.70;;;10.50;99.90;;;;;;5025780;28;20148;-74
2021/05/19 06:15:35;;;;;;;4.60;1.67;;;10.60;99.90;;;;;;5014232;28;20026;-73
2021/05/19 06:18:00;;;;;;;1.77;1.67;;;10.50;99.90;;;;;;5033760;28;20029;-74
2021/05/19 06:20:26;;;;;;;1.50;1.40;;;10.30;99.90;;;;;;5039496;28;20178;-73
2021/05/19 06:22:52;;;;;;;4.22;1.80;;;10.30;99.90;;;;;;5041407;28;20048;-74
2021/05/19 06:25:18;;;;;;;1.73;1.63;;;10.10;99.90;;;;;;5044147;28;20117;-73
2021/05/19 06:27:44;;;;;;;2.80;1.90;;;10.10;99.90;;;;;;5044917;28;20020;-75
2021/05/19 06:30:10;;;;;;;9.63;1.92;;;10.20;99.90;;;;;;5046223;28;20028;-74
2021/05/19 06:32:36;;;;;;;1.90;1.70;;;10.40;99.90;;;;;;5044350;28;20049;-77
2021/05/19 06:35:03;;;;;;;2.22;1.90;;;10.50;99.90;;;;;;5028300;28;20491;-74
2021/05/19 06:37:28;;;;;;;2.00;1.60;;;10.30;99.90;;;;;;5022344;28;20018;-74
2021/05/19 06:39:54;;;;;;;4.40;1.90;;;10.60;99.90;;;;;;5043047;28;20028;-74
2021/05/19 06:42:20;;;;;;;3.83;1.73;;;10.60;99.90;;;;;;5045199;28;20049;-73
2021/05/19 06:44:46;;;;;;;4.22;1.90;;;10.80;99.90;;;;;;5046076;28;20097;-74
2021/05/19 06:47:12;;;;;;;3.70;1.80;;;10.90;99.90;;;;;;5048749;28;20048;-74
2021/05/19 06:49:38;;;;;;;2.10;1.90;;;11.20;99.90;;;;;;5048326;28;20429;-74
2021/05/19 06:52:04;;;;;;;4.45;1.85;;;11.30;99.90;;;;;;5047988;28;20017;-75
2021/05/19 06:54:29;;;;;;;4.53;1.80;;;11.40;99.90;;;;;;5047765;28;20060;-75
2021/05/19 06:56:55;;;;;;;3.88;1.65;;;11.60;99.90;;;;;;5049489;28;20033;-74
2021/05/19 06:59:22;;;;;;;3.40;1.30;;;11.80;99.90;;;;;;5044466;28;20039;-73
2021/05/19 07:01:48;;;;;;;1.98;1.27;;;12.00;99.90;;;;;;5040969;28;20081;-74
2021/05/19 07:04:14;;;;;;;1.30;1.20;;;12.20;99.90;;;;;;5036553;28;20022;-74
2021/05/19 07:06:40;;;;;;;2.38;1.27;;;12.30;99.90;;;;;;5033964;28;20022;-73
2021/05/19 07:09:06;;;;;;;5.13;1.48;;;12.40;99.90;;;;;;5033437;28;20052;-75
2021/05/19 07:11:32;;;;;;;1.88;1.48;;;12.70;99.90;;;;;;5031331;28;20033;-74
2021/05/19 07:14:00;;;;;;;5.35;1.50;;;12.30;99.90;;;;;;5031376;28;20030;-73
2021/05/19 07:16:27;;;;;;;1.75;1.60;;;12.30;99.90;;;;;;5032545;28;20556;-73
2021/05/19 07:18:55;;;;;;;2.00;1.30;;;12.40;99.90;;;;;;5033872;28;20061;-74
2021/05/19 07:21:22;;;;;;;2.38;1.70;;;11.90;99.90;;;;;;5033118;28;20013;-75
2021/05/19 07:23:48;;;;;;;4.43;1.60;;;12.00;99.90;;;;;;5034382;28;20132;-75
2021/05/19 07:26:14;;;;;;;1.30;1.20;;;12.50;99.90;;;;;;5033866;28;20080;-75
2021/05/19 07:28:40;;;;;;;5.25;1.38;;;12.90;99.90;;;;;;5034084;28;20018;-74
2021/05/19 07:31:06;;;;;;;1.40;1.20;;;12.90;99.90;;;;;;5038069;28;20021;-76
2021/05/19 07:33:32;;;;;;;5.00;1.30;;;12.50;99.90;;;;;;5037889;28;20410;-74
2021/05/19 07:35:58;;;;;;;2.45;1.50;;;12.50;99.90;;;;;;5036260;28;20479;-71
2021/05/19 07:38:24;;;;;;;2.92;1.42;;;12.60;99.90;;;;;;5036972;28;20079;-70
2021/05/19 07:40:50;;;;;;;2.00;1.40;;;12.90;99.90;;;;;;5034711;28;20029;-73
2021/05/19 07:43:16;;;;;;;3.50;1.50;;;13.00;99.90;;;;;;5034595;28;20029;-70
2021/05/19 07:45:43;;;;;;;4.80;1.92;;;12.80;99.90;;;;;;5035683;28;20116;-71
2021/05/19 07:48:10;;;;;;;3.90;1.48;;;12.70;99.90;;;;;;5034962;28;20022;-70
2021/05/19 07:50:37;;;;;;;1.70;1.33;;;12.90;99.90;;;;;;5034405;28;20024;-74
2021/05/19 07:53:03;;;;;;;2.90;1.70;;;13.30;99.90;;;;;;5038815;28;20022;-69
2021/05/19 07:58:04;;;;;;;2.03;1.50;;;13.30;99.90;;;;;;5037639;28;20111;-72
2021/05/19 08:03:02;;;;;;;2.42;1.52;;;13.70;99.90;;;;;;5020310;28;20133;-72
2021/05/19 08:05:27;;;;;;;3.00;1.40;;;14.00;99.90;;;;;;5015302;28;20555;-71
2021/05/19 08:07:53;;;;;;;2.35;1.80;;;14.00;99.90;;;;;;5014704;28;20210;-72
2021/05/19 08:10:19;;;;;;;1.75;1.65;;;14.00;99.90;;;;;;5021492;28;20084;-70
2021/05/19 08:12:45;;;;;;;2.53;1.40;;;13.30;99.90;;;;;;5035003;28;20117;-72
2021/05/19 08:15:11;;;;;;;3.83;1.75;;;13.00;99.90;;;;;;5042533;28;20056;-72
2021/05/19 08:17:37;;;;;;;3.00;1.50;;;13.00;99.90;;;;;;5043842;28;20037;-72
2021/05/19 08:20:07;;;;;;;1.98;1.40;;;13.20;99.90;;;;;;5044023;28;20041;-72
2021/05/19 08:22:32;;;;;;;6.15;1.77;;;13.60;99.90;;;;;;5040109;28;20079;-73
2021/05/19 08:24:58;;;;;;;1.60;1.20;;;13.90;99.90;;;;;;5034432;28;20025;-71
2021/05/19 08:27:24;;;;;;;5.13;1.35;;;14.30;99.90;;;;;;5040905;28;20021;-73
2021/05/19 08:29:52;;;;;;;2.67;1.30;;;14.20;99.90;;;;;;5044300;28;20022;-72
2021/05/19 08:32:17;;;;;;;5.32;1.45;;;13.70;99.90;;;;;;5040405;28;20025;-73
2021/05/19 08:34:44;;;;;;;1.85;1.17;;;13.80;99.90;;;;;;5035424;28;20041;-72
2021/05/19 08:37:09;;;;;;;3.70;1.20;;;14.40;99.90;;;;;;5035704;28;20021;-70
2021/05/19 08:39:36;;;;;;;3.15;1.05;;;14.90;99.90;;;;;;5036226;28;20032;-72
2021/05/19 08:42:01;;;;;;;1.10;1.00;;;15.10;99.90;;;;;;5034196;28;20349;-73
2021/05/19 08:44:27;;;;;;;1.83;0.90;;;15.20;99.90;;;;;;5033792;28;20040;-70
2021/05/19 08:46:56;;;;;;;1.17;0.77;;;15.40;99.90;;;;;;5033191;28;20480;-70
2021/05/19 08:49:23;;;;;;;2.70;1.08;;;15.20;99.90;;;;;;5032371;28;20467;-71
2021/05/19 08:51:48;;;;;;;2.60;1.13;;;15.30;99.90;;;;;;5033064;28;20026;-70
2021/05/19 08:54:17;;;;;;;2.10;0.80;;;15.10;99.90;;;;;;5035676;28;20022;-73
2021/05/19 08:56:44;;;;;;;1.13;0.82;;;15.10;99.90;;;;;;5033414;28;20488;-72
2021/05/19 08:59:10;;;;;;;1.33;0.80;;;14.70;99.90;;;;;;5033644;28;20032;-73
2021/05/19 09:01:42;;;;;;;1.50;0.88;;;15.00;99.90;;;;;;5034264;28;20363;-71
2021/05/19 09:04:24;;;;;;;1.23;0.50;;;15.80;99.90;;;;;;5033389;28;20503;-71
2021/05/19 09:06:55;;;;;;;3.08;1.10;;;16.50;99.90;;;;;;5032438;28;20021;-72
2021/05/19 09:09:24;;;;;;;2.80;0.90;;;15.70;99.90;;;;;;5032688;28;20100;-71
2021/05/19 09:12:16;;;;;;;1.00;0.60;;;15.70;99.90;;;;;;5032243;28;20017;-70
2021/05/19 09:15:04;;;;;;;2.20;0.80;;;15.80;99.90;;;;;;5029279;28;20037;-73
2021/05/19 09:17:32;;;;;;;0.60;0.60;;;15.30;99.90;;;;;;5033267;28;20392;-71
2021/05/19 09:20:02;;;;;;;1.85;0.80;;;15.30;99.90;;;;;;5023471;28;20109;-72
2021/05/19 09:22:37;;;;;;;2.92;1.02;;;15.90;99.90;;;;;;5014383;28;20053;-73
2021/05/19 09:25:18;;;;;;;4.00;0.75;;;17.10;99.90;;;;;;5014702;28;20022;-72
2021/05/19 09:27:45;;;;;;;2.08;0.80;;;17.40;99.90;;;;;;5014826;28;20060;-72
2021/05/19 09:30:12;;;;;;;2.17;0.57;;;17.20;99.90;;;;;;5013667;28;20018;-71
2021/05/19 09:32:39;;;;;;;1.85;0.77;;;16.10;99.90;;;;;;5017660;28;20057;-73
2021/05/19 09:35:09;;;;;;;1.05;0.60;;;17.00;99.90;;;;;;5033405;28;20014;-72
2021/05/19 09:37:36;;;;;;;2.20;1.00;;;18.80;99.90;;;;;;5024496;28;20114;-72
2021/05/19 09:40:09;;;;;;;2.38;0.80;;;19.80;97.40;;;;;;5014778;28;20400;-69
2021/05/19 09:42:40;;;;;;;1.38;0.90;;;20.10;93.90;;;;;;5013041;28;20041;-71
2021/05/19 09:45:23;;;;;;;3.53;0.70;;;18.90;94.40;;;;;;5012533;28;20062;-71
2021/05/19 09:47:51;;;;;;;1.45;0.63;;;18.80;95.60;;;;;;5011959;28;20045;-71
2021/05/19 09:50:19;;;;;;;3.78;0.70;;;19.20;93.90;;;;;;5027310;28;20029;-71
2021/05/19 09:53:08;;;;;;;3.67;0.68;;;19.20;94.00;;;;;;5030528;28;20530;-71
2021/05/19 09:55:36;;;;;;;0.95;0.50;;;18.10;94.80;;;;;;5032495;28;20029;-70
2021/05/19 09:58:02;;;;;;;3.22;0.82;;;16.70;96.90;;;;;;5032857;28;20472;-71
2021/05/19 10:00:29;;;;;;;4.88;0.70;;;17.00;95.70;;;;;;5032859;28;20087;-70
2021/05/19 10:02:55;;;;;;;0.98;0.32;;;18.60;96.30;;;;;;5030514;28;20030;-72
2021/05/19 10:05:29;;;;;;;1.27;0.80;;;18.00;92.70;;;;;;5031758;28;20040;-72
2021/05/19 10:07:55;;;;;;;2.97;0.47;;;18.30;95.10;;;;;;5030844;28;20072;-71
2021/05/19 10:10:22;;;;;;;2.60;0.80;;;18.90;90.40;;;;;;5032644;28;20098;-71
2021/05/19 10:12:48;;;;;;;1.52;0.50;;;18.90;85.30;;;;;;5032627;28;20475;-73
2021/05/19 10:15:29;;;;;;;3.25;0.50;;;18.90;84.30;;;;;;5031113;28;20037;-69
2021/05/19 10:18:16;;;;;;;1.02;0.45;;;18.60;82.70;;;;;;5036263;28;20025;-72
2021/05/19 10:20:45;;;;;;;0.40;0.30;;;17.80;80.60;;;;;;5035433;28;20478;-72
2021/05/19 10:23:14;;;;;;;3.40;1.98;;;18.10;85.30;;;;;;5034129;28;20021;-77
2021/05/19 10:25:44;;;;;;;3.35;2.97;;;18.30;89.20;;;;;;5032650;28;20018;-73
2021/05/19 10:28:17;;;;;;;0.55;0.40;;;18.20;82.60;;;;;;5032495;28;20476;-70
2021/05/19 10:31:20;;;;;;;0.45;0.45;;;17.80;82.70;;;;;;5031641;28;20379;-71
2021/05/19 10:33:46;;;;;;;1.23;0.50;;;18.10;86.10;;;;;;5030647;28;20498;-70
2021/05/19 10:36:24;;;;;;;2.92;0.40;;;19.10;85.70;;;;;;5031235;28;20037;-71
2021/05/19 10:39:10;;;;;;;3.58;1.00;;;19.90;81.00;;;;;;5031639;28;20489;-70
2021/05/19 10:41:41;;;;;;;1.35;0.45;;;19.30;82.50;;;;;;5031514;28;20032;-69
2021/05/19 10:44:08;;;;;;;1.08;0.43;;;19.40;81.30;;;;;;5029872;28;20400;-70
2021/05/19 10:49:46;;;;;;;0.73;0.30;;;19.00;79.40;;;;;;5035057;28;20022;-71
2021/05/19 10:58:00;;;;;;;1.35;0.77;;;19.50;73.80;;;;;;5031306;28;20044;-71
2021/05/19 11:00:27;;;;;;;1.60;0.50;;;19.70;76.70;;;;;;5030557;28;20032;-70
2021/05/19 11:02:57;;;;;;;1.08;0.60;;;19.90;73.60;;;;;;5030982;28;20035;-71
2021/05/19 11:05:34;;;;;;;0.70;0.55;;;19.60;68.00;;;;;;5034873;28;20030;-71
2021/05/19 11:08:11;;;;;;;4.20;0.50;;;19.60;76.50;;;;;;5034768;28;20368;-70
2021/05/19 11:10:48;;;;;;;1.02;0.55;;;20.60;66.60;;;;;;5027572;28;20097;-69
2021/05/19 11:13:22;;;;;;;3.90;0.45;;;21.00;64.60;;;;;;5014281;28;20496;-70
2021/05/19 11:21:03;;;;;;;2.83;1.25;;;20.10;66.60;;;;;;5031847;28;20033;-68
2021/05/19 11:23:29;;;;;;;3.05;0.50;;;18.70;67.70;;;;;;5033189;28;20369;-69
2021/05/19 11:26:14;;;;;;;0.80;0.57;;;18.70;69.40;;;;;;5032295;28;20098;-70
2021/05/19 11:28:41;;;;;;;1.05;0.60;;;18.90;72.60;;;;;;5031503;28;20024;-70
2021/05/19 11:31:17;;;;;;;1.80;0.73;;;19.50;67.00;;;;;;5017420;28;20050;-69
2021/05/19 11:33:51;;;;;;;2.28;0.50;;;20.10;68.00;;;;;;5012466;28;20018;-70
2021/05/19 11:36:29;;;;;;;1.65;0.50;;;21.00;67.40;;;;;;5012960;28;20029;-69
2021/05/19 11:38:55;;;;;;;3.17;0.40;;;21.00;59.80;;;;;;5021040;28;20097;-70
2021/05/19 11:41:21;;;;;;;1.10;0.47;;;21.20;59.20;;;;;;5027130;28;20037;-69
2021/05/19 11:43:47;;;;;;;1.63;0.50;;;21.40;64.30;;;;;;5031838;28;20025;-68
2021/05/19 11:46:13;;;;;;;1.38;0.63;;;22.00;63.70;;;;;;5032330;28;20022;-69
2021/05/19 11:48:39;;;;;;;1.02;0.70;;;22.20;60.40;;;;;;5030815;28;20542;-70
2021/05/19 11:51:20;;;;;;;1.70;0.70;;;22.80;60.20;;;;;;5032344;28;20018;-69
2021/05/19 11:53:55;;;;;;;1.03;0.60;;;22.40;61.60;;;;;;5018857;28;20496;-71
2021/05/19 11:56:21;;;;;;;2.78;0.82;;;21.20;63.40;;;;;;5013208;28;20030;-71
2021/05/19 11:58:47;;;;;;;1.85;0.88;;;20.90;62.40;;;;;;5012970;28;20061;-70
2021/05/19 12:01:14;;;;;;;4.60;0.50;;;20.70;61.30;;;;;;5031871;28;20037;-71
2021/05/19 12:03:40;;;;;;;1.90;0.60;;;21.70;62.20;;;;;;5031244;28;20132;-70
2021/05/19 12:06:10;;;;;;;10.30;2.60;;;23.10;60.00;;;;;;5014614;28;20033;-70
2021/05/19 12:08:38;;;;;;;2.55;0.50;;;24.50;57.10;;;;;;5011267;28;20076;-70
2021/05/19 12:11:07;;;;;;;4.97;0.70;;;24.00;54.20;;;;;;5012762;28;20049;-70
2021/05/19 12:13:36;;;;;;;1.83;0.50;;;24.10;54.80;;;;;;5011803;28;20022;-70
2021/05/19 12:16:07;;;;;;;1.10;0.38;;;24.10;58.00;;;;;;5012014;28;20040;-70
2021/05/19 12:18:33;;;;;;;2.42;0.63;;;22.30;54.70;;;;;;5014157;28;20029;-71
2021/05/19 12:21:06;;;;;;;1.42;0.63;;;23.10;58.50;;;;;;5029676;28;20443;-71
2021/05/19 12:23:32;;;;;;;1.85;0.60;;;23.60;56.10;;;;;;5031162;28;20033;-72
2021/05/19 12:25:57;;;;;;;5.57;0.60;;;23.80;55.70;;;;;;5033107;28;20601;-72
2021/05/19 12:28:24;;;;;;;2.90;0.68;;;23.90;52.20;;;;;;5035640;28;20484;-71
2021/05/19 12:30:58;;;;;;;0.98;0.50;;;21.60;56.20;;;;;;5032027;28;20611;-71
2021/05/19 12:33:26;;;;;;;3.10;0.50;;;21.40;57.40;;;;;;5031337;28;20028;-72
2021/05/19 12:35:52;;;;;;;3.22;0.50;;;23.10;55.10;;;;;;5031712;28;20018;-73
2021/05/19 12:38:24;;;;;;;2.40;0.40;;;23.30;54.90;;;;;;5031680;28;20063;-72
2021/05/19 12:40:51;;;;;;;0.40;0.40;;;22.80;55.80;;;;;;5032217;28;20032;-68
2021/05/19 12:43:28;;;;;;;2.50;0.73;;;23.80;52.00;;;;;;5031032;28;20034;-68
2021/05/19 12:46:09;;;;;;;2.60;0.50;;;23.70;53.50;;;;;;5031546;28;20026;-73
2021/05/19 12:48:37;;;;;;;1.45;0.52;;;23.90;51.50;;;;;;5022691;28;20022;-72
2021/05/19 12:51:03;;;;;;;2.92;0.45;;;23.40;51.90;;;;;;5023582;28;20030;-70
2021/05/19 12:53:41;;;;;;;1.45;0.60;;;23.30;54.70;;;;;;5015653;28;20041;-70
2021/05/19 12:56:12;;;;;;;1.80;0.40;;;23.40;52.80;;;;;;5015864;28;20038;-71
2021/05/19 12:58:51;;;;;;;1.70;0.77;;;23.00;51.80;;;;;;5020629;28;20137;-71
2021/05/19 13:01:18;;;;;;;1.02;0.60;;;23.60;51.90;;;;;;5021237;28;20280;-72
2021/05/19 13:03:44;;;;;;;2.15;0.70;;;22.80;52.00;;;;;;5027031;28;20107;-72
2021/05/19 13:06:10;;;;;;;0.90;0.57;;;23.70;58.10;;;;;;5030716;28;20029;-72
2021/05/19 13:08:38;;;;;;;0.80;0.47;;;26.70;50.90;;;;;;5023132;28;20101;-73
2021/05/19 13:11:07;;;;;;;0.40;0.40;;;28.30;47.10;;;;;;5023243;28;20032;-76
2021/05/19 13:13:40;;;;;;;1.10;0.40;;;28.30;44.80;;;;;;5017492;28;20018;-73
2021/05/19 13:16:09;;;;;;;5.13;0.60;;;25.50;45.90;;;;;;5020307;28;20026;-76